Item Display Status Humidity-temperature Sensor

Elevation Above Sea Level: 3 m

 

Deployed Sensor

  • Serial Number: 61085378
  • NDBC Property Number: 36507
  • Start Date: 10/24/2013 (13:09:26 Z)
  • End Date: 4/18/2015 (12:25:00 Z)
Relative Humidity [%]     6 entries per hour
Showing data from 6/28/2014 (10:00:00 Z) to 6/27/2014 (00:00:01 Z)
Previous Next [ Day | 3-Days | 7-Days ]
First Last
Prev [ Day | 3-Days | 7-Days ] Next
First Last

Start Time:     :
End Time:     :     
Time (in GMT) :00 :50 :40 :30 :20 :10
Previous Next [ Day | 3-Days | 7-Days ]
First Last
Prev [ Day | 3-Days | 7-Days ] Next
First Last


123 => good data
MM => data is determined as missing
-- => data not received/configured
Back to Top Back to Top
6/28/2014 10:00 to 9:10 90.37 90.74 90.68 91.28 90.84 91.82
6/28/2014 09:00 to 8:10 92.71 92.03 91.69 91.42 90.95 91.76
6/28/2014 08:00 to 7:10 91.15 90.99 91.24 90.78 90.03 91.05
6/28/2014 07:00 to 6:10 90.37 90.32 89.93 90.70 90.41 91.80
6/28/2014 06:00 to 5:10 92.25 90.99 91.15 89.97 89.79 89.10
6/28/2014 05:00 to 4:10 88.54 89.54 90.35 88.75 88.89 88.52
6/28/2014 04:00 to 3:10 88.62 89.60 88.77 87.94 88.15 88.11
6/28/2014 03:00 to 2:10 87.32 87.09 86.80 86.38 86.01 84.89
6/28/2014 02:00 to 1:10 84.37 84.31 84.41 83.52 82.96 83.54
6/28/2014 01:00 to 0:10 83.62 83.96 82.61 82.79 83.36 82.57
6/28/2014 00:00 to 23:10 81.97 82.77 82.23 81.47 82.67 83.29
6/27/2014 23:00 to 22:10 84.91 84.25 84.18 83.73 84.74 82.96
6/27/2014 22:00 to 21:10 82.82 83.87 83.83 84.48 85.04 83.58
6/27/2014 21:00 to 20:10 82.40 84.85 85.35 85.60 85.57 86.28
6/27/2014 20:00 to 19:10 86.86 83.67 81.82 83.25 83.09 81.65
6/27/2014 19:00 to 18:10 81.76 81.63 79.58 81.65 80.60 80.39
6/27/2014 18:00 to 17:10 81.57 79.73 80.91 81.41 83.48 83.23
6/27/2014 17:00 to 16:10 83.67 84.79 85.80 83.02 80.20 79.77
6/27/2014 16:00 to 15:10 82.34 81.32 84.54 82.84 81.86 81.30
6/27/2014 15:00 to 14:10 82.07 82.30 83.89 85.95 86.07 83.75
6/27/2014 14:00 to 13:10 81.36 80.47 81.38 83.98 82.13 82.55
6/27/2014 13:00 to 12:10 83.92 87.57 87.52 86.57 87.86 88.85
6/27/2014 12:00 to 11:10 89.12 86.49 85.01 83.60 81.45 80.89
6/27/2014 11:00 to 10:10 81.51 83.73 84.60 84.81 80.58 77.65
6/27/2014 10:00 to 9:10 77.32 76.34 74.39 73.79 74.50 72.92
6/27/2014 09:00 to 8:10 74.62 77.84 79.14 78.27 78.94 80.02
6/27/2014 08:00 to 7:10 79.46 81.67 82.48 82.01 82.44 85.60
6/27/2014 07:00 to 6:10 88.69 89.00 88.62 87.48 87.69 88.00
6/27/2014 06:00 to 5:10 88.21 91.44 92.88 92.50 92.56 93.25
6/27/2014 05:00 to 4:10 -- -- -- -- -- --
6/27/2014 04:00 to 3:10 89.93 86.22 86.69 86.76 87.86 88.19
6/27/2014 03:00 to 2:10 87.19 86.28 86.36 87.05 84.52 83.58
6/27/2014 02:00 to 1:10 84.21 83.67 86.72 86.96 86.51 87.71
6/27/2014 01:00 to 0:10 88.52 90.39 84.52 85.35 83.29 84.62

 

 

 

Air Temperature [°C]     6 entries per hour
Showing data from 4/18/2015 (12:20:00 Z) to 4/17/2015 (00:00:01 Z)
Previous Next [ Day | 3-Days | 7-Days ]
First Last
Prev [ Day | 3-Days | 7-Days ] Next
First Last

Start Time:     :
End Time:     :     
Time (in GMT) :00 :50 :40 :30 :20 :10
Previous Next [ Day | 3-Days | 7-Days ]
First Last
Prev [ Day | 3-Days | 7-Days ] Next
First Last


123 => good data
MM => data is determined as missing
-- => data not received/configured
Back to Top Back to Top
4/18/2015 13:00 to 12:10 -- -- -- -- 24.34 24.25
4/18/2015 12:00 to 11:10 24.02 24.20 24.17 23.76 24.40 24.07
4/18/2015 11:00 to 10:10 24.09 24.18 24.19 24.27 24.18 24.27
4/18/2015 10:00 to 9:10 24.19 24.20 23.99 24.13 24.18 24.22
4/18/2015 09:00 to 8:10 24.17 24.11 24.28 24.26 24.38 24.21
4/18/2015 08:00 to 7:10 24.22 24.36 24.34 24.44 24.03 24.15
4/18/2015 07:00 to 6:10 24.27 24.18 24.17 24.27 24.18 24.32
4/18/2015 06:00 to 5:10 24.24 24.40 24.33 24.26 24.27 24.31
4/18/2015 05:00 to 4:10 23.90 23.77 23.74 23.92 23.96 24.00
4/18/2015 04:00 to 3:10 24.07 24.09 24.11 24.06 23.95 23.83
4/18/2015 03:00 to 2:10 24.16 24.24 24.42 24.09 24.04 23.68
4/18/2015 02:00 to 1:10 23.45 23.71 23.76 23.49 23.29 23.42
4/18/2015 01:00 to 0:10 24.28 24.13 24.24 24.07 24.10 24.01
4/18/2015 00:00 to 23:10 24.16 23.99 23.81 23.53 23.25 23.04
4/17/2015 23:00 to 22:10 22.90 23.10 23.09 22.78 22.53 22.68
4/17/2015 22:00 to 21:10 22.47 21.84 21.58 21.56 21.89 22.07
4/17/2015 21:00 to 20:10 22.18 22.10 21.79 21.80 22.27 22.41
4/17/2015 20:00 to 19:10 22.99 23.41 23.58 23.54 23.25 23.28
4/17/2015 19:00 to 18:10 23.43 23.65 23.61 23.78 24.56 24.67
4/17/2015 18:00 to 17:10 24.46 24.35 23.85 22.95 23.08 23.02
4/17/2015 17:00 to 16:10 22.66 23.11 23.54 23.59 24.34 24.46
4/17/2015 16:00 to 15:10 24.37 24.32 24.20 23.90 23.56 22.51
4/17/2015 15:00 to 14:10 22.64 22.88 22.71 22.59 22.40 22.44
4/17/2015 14:00 to 13:10 22.55 22.57 22.58 22.36 22.61 22.56
4/17/2015 13:00 to 12:10 22.41 22.33 22.46 22.51 22.61 23.12
4/17/2015 12:00 to 11:10 23.38 23.30 22.80 22.52 22.32 22.46
4/17/2015 11:00 to 10:10 23.10 23.01 23.44 23.88 23.77 24.08
4/17/2015 10:00 to 9:10 24.27 24.07 24.17 24.55 24.25 24.49
4/17/2015 09:00 to 8:10 24.49 24.20 24.18 24.36 24.44 24.57
4/17/2015 08:00 to 7:10 24.54 24.76 24.60 24.72 24.54 24.44
4/17/2015 07:00 to 6:10 24.59 24.71 24.67 24.60 24.71 24.67
4/17/2015 06:00 to 5:10 -- -- -- -- -- --
4/17/2015 05:00 to 4:10 24.77 24.76 24.87 24.80 24.81 24.80
4/17/2015 04:00 to 3:10 24.80 24.69 24.76 24.93 24.80 24.76
4/17/2015 03:00 to 2:10 24.82 24.82 24.89 24.65 24.74 24.66
4/17/2015 02:00 to 1:10 24.68 24.71 24.66 24.70 24.73 24.73
4/17/2015 01:00 to 0:10 24.78 24.69 24.78 24.80 24.79 24.95